createdAt,value
2022-09-28T00:00:26.205Z,100773.00
2022-09-28T00:02:57.702Z,100777.00
2022-09-28T00:05:28.261Z,100767.00
2022-09-28T00:07:58.036Z,100769.00
2022-09-28T00:10:26.797Z,100766.00
2022-09-28T00:12:56.471Z,100768.00
2022-09-28T00:15:25.809Z,100777.00
2022-09-28T00:17:54.720Z,100770.00
2022-09-28T00:20:23.461Z,100764.00
2022-09-28T00:22:53.799Z,100755.00
2022-09-28T00:25:25.022Z,100761.00
2022-09-28T00:27:54.162Z,100759.00
2022-09-28T00:30:22.822Z,100755.00
2022-09-28T00:32:51.660Z,100753.00
2022-09-28T00:35:20.372Z,100755.00
2022-09-28T00:37:52.268Z,100757.00
2022-09-28T00:40:21.183Z,100756.00
2022-09-28T00:42:50.071Z,100749.00
2022-09-28T00:45:19.024Z,100750.00
2022-09-28T00:47:53.120Z,100757.00
2022-09-28T00:50:28.197Z,100749.00
2022-09-28T00:53:05.553Z,100759.00
2022-09-28T00:55:43.122Z,100745.00
2022-09-28T00:58:16.997Z,100744.00
2022-09-28T01:00:45.950Z,100735.00
2022-09-28T01:03:15.490Z,100739.00
2022-09-28T01:05:47.162Z,100740.00
2022-09-28T01:08:21.273Z,100736.00
2022-09-28T01:10:51.283Z,100739.00
2022-09-28T01:13:24.718Z,100745.00
2022-09-28T01:16:08.894Z,100739.00
2022-09-28T01:18:54.891Z,100737.00
2022-09-28T01:21:25.119Z,100743.00
2022-09-28T01:24:26.554Z,100742.00
2022-09-28T01:27:16.755Z,100742.00
2022-09-28T01:29:56.015Z,100739.00
2022-09-28T01:32:45.168Z,100744.00
2022-09-28T01:35:22.247Z,100737.00
2022-09-28T01:37:58.647Z,100731.00
2022-09-28T01:40:31.599Z,100739.00
2022-09-28T01:43:09.319Z,100733.00
2022-09-28T01:45:45.882Z,100741.00
2022-09-28T01:48:24.165Z,100744.00
2022-09-28T01:50:59.546Z,100739.00
2022-09-28T01:53:37.223Z,100738.00
2022-09-28T01:56:13.614Z,100737.00
2022-09-28T01:58:50.204Z,100733.00
2022-09-28T02:01:25.596Z,100732.00
2022-09-28T02:04:03.804Z,100729.00
2022-09-28T02:06:40.649Z,100726.00
2022-09-28T02:09:15.356Z,100721.00
2022-09-28T02:11:55.133Z,100721.00
2022-09-28T02:14:27.480Z,100711.00
2022-09-28T02:16:58.543Z,100712.00
2022-09-28T02:19:34.088Z,100715.00
2022-09-28T02:22:14.637Z,100715.00
2022-09-28T02:24:56.585Z,100716.00
2022-09-28T02:27:39.202Z,100717.00
2022-09-28T02:30:11.353Z,100724.00
2022-09-28T02:32:45.615Z,100715.00
2022-09-28T02:35:17.080Z,100711.00
2022-09-28T02:37:52.918Z,100716.00
2022-09-28T02:40:27.963Z,100711.00
2022-09-28T02:43:09.762Z,100710.00
2022-09-28T02:45:58.213Z,100711.00
2022-09-28T02:49:10.593Z,100717.00
2022-09-28T02:51:59.397Z,100712.00
2022-09-28T02:55:13.673Z,100704.00
2022-09-28T02:58:04.430Z,100706.00
2022-09-28T03:00:43.928Z,100702.00
2022-09-28T03:03:25.411Z,100701.00
2022-09-28T03:06:04.556Z,100700.00
2022-09-28T03:08:46.249Z,100700.00
2022-09-28T03:11:22.859Z,100696.00
2022-09-28T03:13:54.431Z,100702.00
2022-09-28T03:16:32.050Z,100698.00
2022-09-28T03:19:01.026Z,100712.00
2022-09-28T03:21:29.794Z,100701.00
2022-09-28T03:23:58.593Z,100699.00
2022-09-28T03:26:27.298Z,100698.00
2022-09-28T03:28:55.996Z,100697.00
2022-09-28T03:31:26.787Z,100701.00
2022-09-28T03:33:57.068Z,100704.00
2022-09-28T03:36:26.104Z,100702.00
2022-09-28T03:38:56.319Z,100695.00
2022-09-28T03:41:27.819Z,100695.00
2022-09-28T03:43:56.672Z,100684.00
2022-09-28T03:46:27.554Z,100683.00
2022-09-28T03:49:01.610Z,100685.00
2022-09-28T03:51:31.089Z,100683.00
2022-09-28T03:54:00.087Z,100678.00
2022-09-28T03:56:29.034Z,100686.00
2022-09-28T03:58:58.046Z,100680.00
2022-09-28T04:01:30.649Z,100687.00
2022-09-28T04:04:01.575Z,100682.00
2022-09-28T04:06:30.637Z,100674.00
2022-09-28T04:09:00.049Z,100675.00
2022-09-28T04:11:42.860Z,100670.00
2022-09-28T04:14:18.263Z,100671.00
2022-09-28T04:17:07.315Z,100669.00
2022-09-28T04:19:38.472Z,100660.00
2022-09-28T04:22:27.577Z,100664.00
2022-09-28T04:24:59.103Z,100665.00
2022-09-28T04:27:45.628Z,100663.00
2022-09-28T04:30:15.064Z,100655.00
2022-09-28T04:32:48.118Z,100654.00
2022-09-28T04:35:19.169Z,100647.00
2022-09-28T04:37:49.179Z,100644.00
2022-09-28T04:40:18.363Z,100641.00
2022-09-28T04:42:55.918Z,100643.00
2022-09-28T04:45:27.013Z,100636.00
2022-09-28T04:47:59.480Z,100636.00
2022-09-28T04:51:08.408Z,100630.00
2022-09-28T04:53:37.498Z,100630.00
2022-09-28T04:56:09.841Z,100640.00
2022-09-28T04:58:41.354Z,100635.00
2022-09-28T05:01:13.561Z,100650.00
2022-09-28T05:04:11.305Z,100648.00
2022-09-28T05:07:10.768Z,100635.00
2022-09-28T05:09:40.327Z,100646.00
2022-09-28T05:12:10.752Z,100643.00
2022-09-28T05:14:40.176Z,100642.00
2022-09-28T05:17:14.673Z,100646.00
2022-09-28T05:20:00.890Z,100642.00
2022-09-28T05:22:34.906Z,100643.00
2022-09-28T05:25:03.975Z,100640.00
2022-09-28T05:27:40.294Z,100638.00
2022-09-28T05:30:24.249Z,100634.00
2022-09-28T05:33:25.032Z,100623.00
2022-09-28T05:36:06.290Z,100625.00
2022-09-28T05:38:36.702Z,100640.00
2022-09-28T05:41:08.613Z,100628.00
2022-09-28T05:43:38.955Z,100639.00
2022-09-28T05:46:08.603Z,100631.00
2022-09-28T05:48:41.910Z,100629.00
2022-09-28T05:51:12.226Z,100629.00
2022-09-28T05:54:51.252Z,100620.00
2022-09-28T05:57:50.339Z,100622.00
2022-09-28T06:00:23.853Z,100625.00
2022-09-28T06:03:22.805Z,100622.00
2022-09-28T06:09:47.846Z,100612.00
2022-09-28T06:12:25.779Z,100621.00
2022-09-28T06:15:04.649Z,100619.00
2022-09-28T06:17:33.503Z,100618.00
2022-09-28T06:20:35.832Z,100627.00
2022-09-28T06:23:15.896Z,100623.00
2022-09-28T06:25:48.514Z,100612.00
2022-09-28T06:29:01.515Z,100619.00
2022-09-28T06:31:43.054Z,100614.00
2022-09-28T06:34:36.112Z,100618.00
2022-09-28T06:37:12.747Z,100617.00
2022-09-28T06:39:42.470Z,100611.00
2022-09-28T06:42:12.997Z,100610.00
2022-09-28T06:45:06.201Z,100608.00
2022-09-28T06:48:27.225Z,100605.00
2022-09-28T06:50:58.645Z,100601.00
2022-09-28T06:53:54.095Z,100597.00
2022-09-28T06:56:46.451Z,100593.00
2022-09-28T06:59:20.586Z,100593.00
2022-09-28T07:01:56.461Z,100587.00
2022-09-28T07:05:03.656Z,100599.00
2022-09-28T07:07:45.073Z,100591.00
2022-09-28T07:10:28.450Z,100589.00
2022-09-28T07:13:43.408Z,100590.00
2022-09-28T07:16:13.395Z,100579.00
2022-09-28T07:18:53.446Z,100570.00
2022-09-28T07:21:30.644Z,100588.00
2022-09-28T07:24:06.760Z,100579.00
2022-09-28T07:27:05.775Z,100572.00
2022-09-28T07:29:54.765Z,100573.00
2022-09-28T07:35:05.085Z,100568.00
2022-09-28T07:37:49.407Z,100561.00
2022-09-28T07:40:37.795Z,100559.00
2022-09-28T07:43:08.043Z,100566.00
2022-09-28T07:45:42.483Z,100564.00
2022-09-28T07:48:13.946Z,100561.00
2022-09-28T07:51:02.804Z,100562.00
2022-09-28T07:53:41.846Z,100554.00
2022-09-28T07:56:31.167Z,100553.00
2022-09-28T07:59:29.280Z,100547.00
2022-09-28T08:02:20.342Z,100548.00
2022-09-28T08:04:51.493Z,100554.00
2022-09-28T08:07:23.843Z,100560.00
2022-09-28T08:10:00.186Z,100553.00
2022-09-28T08:12:29.285Z,100552.00
2022-09-28T08:15:27.015Z,100553.00
2022-09-28T08:18:09.404Z,100553.00
2022-09-28T08:21:03.294Z,100550.00
2022-09-28T08:23:32.376Z,100553.00
2022-09-28T08:26:04.504Z,100551.00
2022-09-28T08:28:35.988Z,100555.00
2022-09-28T08:31:25.049Z,100549.00
2022-09-28T08:34:33.219Z,100548.00
2022-09-28T08:37:34.135Z,100541.00
2022-09-28T08:40:26.985Z,100546.00
2022-09-28T08:43:38.519Z,100551.00
2022-09-28T08:46:30.467Z,100545.00
2022-09-28T08:49:29.913Z,100545.00
2022-09-28T08:52:25.121Z,100537.00
2022-09-28T08:55:33.768Z,100538.00
2022-09-28T08:58:08.024Z,100539.00
2022-09-28T09:00:49.434Z,100541.00
2022-09-28T09:03:28.867Z,100542.00
2022-09-28T09:07:04.525Z,100538.00
2022-09-28T09:10:00.686Z,100538.00
2022-09-28T09:12:44.273Z,100535.00
2022-09-28T09:15:38.889Z,100532.00
2022-09-28T09:18:32.743Z,100535.00
2022-09-28T09:21:27.985Z,100535.00
2022-09-28T09:24:01.627Z,100523.00
2022-09-28T09:27:10.535Z,100540.00
2022-09-28T09:30:07.288Z,100528.00
2022-09-28T09:33:29.771Z,100526.00
2022-09-28T09:36:47.996Z,100525.00
2022-09-28T09:40:12.073Z,100529.00
2022-09-28T09:43:40.176Z,100522.00
2022-09-28T09:46:55.857Z,100519.00
2022-09-28T09:49:40.795Z,100523.00
2022-09-28T09:52:25.513Z,100519.00
2022-09-28T09:55:01.392Z,100519.00
2022-09-28T09:57:46.636Z,100521.00
2022-09-28T10:00:34.127Z,100516.00
2022-09-28T10:04:01.024Z,100518.00
2022-09-28T10:06:36.145Z,100503.00
2022-09-28T10:09:30.317Z,100515.00
2022-09-28T10:12:22.090Z,100508.00
2022-09-28T10:14:53.312Z,100515.00
2022-09-28T10:17:26.967Z,100510.00
2022-09-28T10:20:19.966Z,100510.00
2022-09-28T10:23:07.224Z,100502.00
2022-09-28T10:25:52.920Z,100496.00
2022-09-28T10:29:09.387Z,100502.00
2022-09-28T10:31:45.105Z,100503.00
2022-09-28T10:34:29.581Z,100503.00
2022-09-28T10:37:09.373Z,100495.00
2022-09-28T10:39:58.484Z,100491.00
2022-09-28T10:42:36.268Z,100491.00
2022-09-28T10:45:23.404Z,100480.00
2022-09-28T10:47:55.822Z,100490.00
2022-09-28T10:50:30.501Z,100481.00
2022-09-28T10:53:21.311Z,100490.00
2022-09-28T10:56:22.930Z,100482.00
2022-09-28T10:59:00.389Z,100489.00
2022-09-28T11:01:43.540Z,100481.00
2022-09-28T11:04:23.947Z,100484.00
2022-09-28T11:09:33.843Z,100478.00
2022-09-28T11:12:17.097Z,100477.00
2022-09-28T11:14:52.704Z,100476.00
2022-09-28T11:17:31.162Z,100468.00
2022-09-28T11:20:27.041Z,100465.00
2022-09-28T11:23:01.592Z,100462.00
2022-09-28T11:25:39.807Z,100460.00
2022-09-28T11:28:24.707Z,100463.00
2022-09-28T11:30:56.084Z,100465.00
2022-09-28T11:33:43.436Z,100463.00
2022-09-28T11:37:02.657Z,100454.00
2022-09-28T11:39:47.617Z,100447.00
2022-09-28T11:42:42.935Z,100448.00
2022-09-28T11:45:38.446Z,100454.00
2022-09-28T11:48:13.646Z,100447.00
2022-09-28T11:50:50.871Z,100450.00
2022-09-28T11:53:36.810Z,100439.00
2022-09-28T11:56:18.885Z,100440.00
2022-09-28T11:58:54.770Z,100443.00
2022-09-28T12:01:53.796Z,100443.00
2022-09-28T12:04:59.547Z,100441.00
2022-09-28T12:07:37.752Z,100443.00
2022-09-28T12:10:21.250Z,100432.00
2022-09-28T12:13:00.223Z,100430.00
2022-09-28T12:16:12.759Z,100429.00
2022-09-28T12:18:43.671Z,100428.00
2022-09-28T12:21:37.969Z,100418.00
2022-09-28T12:24:21.919Z,100423.00
2022-09-28T12:26:58.125Z,100417.00
2022-09-28T12:29:34.110Z,100416.00
2022-09-28T12:32:47.632Z,100406.00
2022-09-28T12:35:43.350Z,100407.00
2022-09-28T12:39:08.533Z,100407.00
2022-09-28T12:41:59.925Z,100395.00
2022-09-28T12:45:11.781Z,100410.00
2022-09-28T12:51:43.615Z,100396.00
2022-09-28T13:02:02.569Z,100390.00
2022-09-28T13:04:58.339Z,100377.00
2022-09-28T13:07:38.371Z,100382.00
2022-09-28T13:10:24.623Z,100383.00
2022-09-28T13:13:17.798Z,100383.00
2022-09-28T13:15:58.034Z,100385.00
2022-09-28T13:18:34.904Z,100385.00
2022-09-28T13:21:24.111Z,100380.00
2022-09-28T13:24:08.720Z,100387.00
2022-09-28T13:26:49.218Z,100380.00
2022-09-28T13:29:22.283Z,100375.00
2022-09-28T13:31:56.811Z,100380.00
2022-09-28T13:34:30.291Z,100367.00
2022-09-28T13:37:25.616Z,100372.00
2022-09-28T13:39:56.814Z,100372.00
2022-09-28T13:43:19.405Z,100375.00
2022-09-28T13:45:57.503Z,100369.00
2022-09-28T13:48:42.601Z,100365.00
2022-09-28T13:51:39.246Z,100356.00
2022-09-28T13:54:41.364Z,100355.00
2022-09-28T13:57:24.218Z,100351.00
2022-09-28T14:00:08.633Z,100349.00
2022-09-28T14:02:49.417Z,100345.00
2022-09-28T14:10:21.290Z,100344.00
2022-09-28T14:13:09.979Z,100348.00
2022-09-28T14:15:54.177Z,100337.00
2022-09-28T14:18:32.416Z,100345.00
2022-09-28T14:21:36.051Z,100339.00
2022-09-28T14:24:22.712Z,100340.00
2022-09-28T14:31:26.182Z,100336.00
2022-09-28T14:34:32.398Z,100333.00
2022-09-28T14:37:58.962Z,100339.00
2022-09-28T14:41:26.864Z,100335.00
2022-09-28T14:44:09.296Z,100324.00
2022-09-28T14:47:45.308Z,100322.00
2022-09-28T14:50:27.101Z,100315.00
2022-09-28T14:53:21.192Z,100317.00
2022-09-28T14:55:55.484Z,100321.00
2022-09-28T14:59:23.088Z,100320.00
2022-09-28T15:02:15.088Z,100324.00
2022-09-28T15:05:12.067Z,100317.00
2022-09-28T15:07:59.908Z,100322.00
2022-09-28T15:10:34.444Z,100323.00
2022-09-28T15:13:16.902Z,100315.00
2022-09-28T15:15:51.001Z,100317.00
2022-09-28T15:19:15.998Z,100318.00
2022-09-28T15:21:47.742Z,100315.00
2022-09-28T15:24:53.402Z,100309.00
2022-09-28T15:27:22.497Z,100318.00
2022-09-28T15:30:29.582Z,100312.00
2022-09-28T15:33:37.173Z,100316.00
2022-09-28T15:39:52.282Z,100310.00
2022-09-28T15:42:22.915Z,100311.00
2022-09-28T15:45:27.756Z,100308.00
2022-09-28T15:48:21.530Z,100304.00
2022-09-28T15:51:10.342Z,100307.00
2022-09-28T15:53:44.966Z,100300.00
2022-09-28T15:56:14.060Z,100300.00
2022-09-28T15:58:43.796Z,100304.00
2022-09-28T16:01:37.139Z,100306.00
2022-09-28T16:04:49.130Z,100304.00
2022-09-28T16:07:25.737Z,100310.00
2022-09-28T16:10:06.506Z,100298.00
2022-09-28T16:12:46.140Z,100311.00
2022-09-28T16:15:21.593Z,100306.00
2022-09-28T16:17:56.831Z,100302.00
2022-09-28T16:20:32.274Z,100303.00
2022-09-28T16:23:09.499Z,100307.00
2022-09-28T16:25:40.240Z,100300.00
2022-09-28T16:28:26.567Z,100304.00
2022-09-28T16:31:08.560Z,100302.00
2022-09-28T16:33:45.290Z,100299.00
2022-09-28T16:36:18.943Z,100305.00
2022-09-28T16:38:48.362Z,100300.00
2022-09-28T16:41:23.306Z,100305.00
2022-09-28T16:44:03.850Z,100293.00
2022-09-28T16:46:37.622Z,100303.00
2022-09-28T16:49:08.500Z,100295.00
2022-09-28T16:51:40.244Z,100295.00
2022-09-28T16:54:35.564Z,100296.00
2022-09-28T16:57:06.914Z,100290.00
2022-09-28T16:59:38.473Z,100289.00
2022-09-28T17:02:45.725Z,100298.00
2022-09-28T17:05:17.053Z,100285.00
2022-09-28T17:07:49.227Z,100287.00
2022-09-28T17:10:25.563Z,100289.00
2022-09-28T17:12:54.783Z,100290.00
2022-09-28T17:15:26.117Z,100284.00
2022-09-28T17:17:58.329Z,100287.00
2022-09-28T17:20:30.518Z,100282.00
2022-09-28T17:23:02.367Z,100281.00
2022-09-28T17:25:32.644Z,100279.00
2022-09-28T17:28:05.108Z,100278.00
2022-09-28T17:30:34.498Z,100278.00
2022-09-28T17:33:04.162Z,100276.00
2022-09-28T17:35:39.754Z,100269.00
2022-09-28T17:38:13.886Z,100271.00
2022-09-28T17:40:45.072Z,100278.00
2022-09-28T17:43:16.127Z,100272.00
2022-09-28T17:45:48.957Z,100267.00
2022-09-28T17:48:21.956Z,100262.00
2022-09-28T17:50:56.201Z,100259.00
2022-09-28T17:53:27.297Z,100257.00
2022-09-28T17:55:57.070Z,100255.00
2022-09-28T17:58:26.589Z,100258.00
2022-09-28T18:00:56.121Z,100249.00
2022-09-28T18:03:42.490Z,100256.00
2022-09-28T18:06:22.701Z,100248.00
2022-09-28T18:09:06.096Z,100244.00
2022-09-28T18:11:48.060Z,100236.00
2022-09-28T18:14:17.684Z,100242.00
2022-09-28T18:16:59.545Z,100234.00
2022-09-28T18:19:33.939Z,100234.00
2022-09-28T18:22:03.677Z,100230.00
2022-09-28T18:24:37.372Z,100230.00
2022-09-28T18:27:06.980Z,100225.00
2022-09-28T18:29:39.829Z,100218.00
2022-09-28T18:32:18.019Z,100220.00
2022-09-28T18:34:52.506Z,100215.00
2022-09-28T18:37:31.084Z,100215.00
2022-09-28T18:40:02.242Z,100213.00
2022-09-28T18:42:38.878Z,100217.00
2022-09-28T18:45:20.206Z,100207.00
2022-09-28T18:47:49.707Z,100213.00
2022-09-28T18:50:20.149Z,100210.00
2022-09-28T18:52:53.397Z,100212.00
2022-09-28T18:55:31.910Z,100195.00
2022-09-28T18:58:13.708Z,100196.00
2022-09-28T19:00:44.836Z,100196.00
2022-09-28T19:03:52.295Z,100182.00
2022-09-28T19:06:23.368Z,100184.00
2022-09-28T19:08:55.944Z,100182.00
2022-09-28T19:11:27.491Z,100178.00
2022-09-28T19:14:01.507Z,100174.00
2022-09-28T19:16:35.197Z,100178.00
2022-09-28T19:19:09.624Z,100172.00
2022-09-28T19:21:40.108Z,100172.00
2022-09-28T19:24:10.416Z,100172.00
2022-09-28T19:26:43.172Z,100167.00
2022-09-28T19:29:22.792Z,100167.00
2022-09-28T19:31:54.483Z,100168.00
2022-09-28T19:34:27.085Z,100167.00
2022-09-28T19:36:56.467Z,100160.00
2022-09-28T19:39:25.839Z,100158.00
2022-09-28T19:41:59.889Z,100152.00
2022-09-28T19:44:35.989Z,100158.00
2022-09-28T19:47:11.763Z,100161.00
2022-09-28T19:49:42.372Z,100145.00
2022-09-28T19:52:17.341Z,100150.00
2022-09-28T19:54:57.024Z,100142.00
2022-09-28T19:57:42.978Z,100147.00
2022-09-28T20:00:20.793Z,100148.00
2022-09-28T20:02:53.304Z,100137.00
2022-09-28T20:05:23.863Z,100135.00
2022-09-28T20:07:53.154Z,100141.00
2022-09-28T20:10:22.501Z,100134.00
2022-09-28T20:12:55.769Z,100126.00
2022-09-28T20:15:27.870Z,100128.00
2022-09-28T20:18:00.008Z,100122.00
2022-09-28T20:20:29.404Z,100128.00
2022-09-28T20:22:58.899Z,100122.00
2022-09-28T20:25:28.331Z,100116.00
2022-09-28T20:27:59.073Z,100118.00
2022-09-28T20:30:28.317Z,100121.00
2022-09-28T20:32:57.795Z,100117.00
2022-09-28T20:35:32.933Z,100113.00
2022-09-28T20:38:08.183Z,100124.00
2022-09-28T20:40:42.341Z,100108.00
2022-09-28T20:43:13.375Z,100114.00
2022-09-28T20:45:43.127Z,100100.00
2022-09-28T20:48:12.170Z,100108.00
2022-09-28T20:50:42.823Z,100108.00
2022-09-28T20:53:12.007Z,100105.00
2022-09-28T20:55:40.916Z,100099.00
2022-09-28T20:58:09.741Z,100098.00
2022-09-28T21:00:40.172Z,100101.00
2022-09-28T21:03:10.263Z,100095.00
2022-09-28T21:05:39.104Z,100096.00
2022-09-28T21:08:07.756Z,100092.00
2022-09-28T21:10:36.634Z,100092.00
2022-09-28T21:13:05.619Z,100086.00
2022-09-28T21:15:35.257Z,100094.00
2022-09-28T21:18:05.669Z,100085.00
2022-09-28T21:20:34.403Z,100091.00
2022-09-28T21:23:03.126Z,100082.00
2022-09-28T21:25:31.848Z,100087.00
2022-09-28T21:28:00.614Z,100078.00
2022-09-28T21:30:29.395Z,100081.00
2022-09-28T21:32:58.433Z,100070.00
2022-09-28T21:35:28.677Z,100070.00
2022-09-28T21:37:57.429Z,100078.00
2022-09-28T21:40:26.166Z,100064.00
2022-09-28T21:42:55.016Z,100068.00
2022-09-28T21:45:25.287Z,100062.00
2022-09-28T21:47:54.507Z,100067.00
2022-09-28T21:50:25.461Z,100063.00
2022-09-28T21:52:57.115Z,100067.00
2022-09-28T21:55:26.367Z,100058.00
2022-09-28T21:57:55.136Z,100057.00
2022-09-28T22:00:24.489Z,100057.00
2022-09-28T22:02:53.493Z,100058.00
2022-09-28T22:05:22.232Z,100058.00
2022-09-28T22:07:51.015Z,100052.00
2022-09-28T22:10:21.272Z,100054.00
2022-09-28T22:12:50.897Z,100051.00
2022-09-28T22:15:19.596Z,100052.00
2022-09-28T22:17:48.377Z,100053.00
2022-09-28T22:20:17.385Z,100049.00
2022-09-28T22:22:50.953Z,100052.00
2022-09-28T22:25:21.231Z,100056.00
2022-09-28T22:27:49.989Z,100047.00
2022-09-28T22:30:18.899Z,100047.00
2022-09-28T22:32:47.786Z,100046.00
2022-09-28T22:35:16.687Z,100047.00
2022-09-28T22:37:45.445Z,100046.00
2022-09-28T22:40:14.682Z,100048.00
2022-09-28T22:42:44.726Z,100037.00
2022-09-28T22:45:13.397Z,100040.00
2022-09-28T22:47:42.785Z,100041.00
2022-09-28T22:50:11.775Z,100033.00
2022-09-28T22:52:40.476Z,100037.00
2022-09-28T22:55:10.199Z,100035.00
2022-09-28T22:57:39.491Z,100033.00
2022-09-28T23:00:11.412Z,100032.00
2022-09-28T23:02:40.244Z,100030.00
2022-09-28T23:05:09.202Z,100027.00
2022-09-28T23:07:38.173Z,100022.00
2022-09-28T23:10:08.134Z,100022.00
2022-09-28T23:12:38.170Z,100021.00
2022-09-28T23:15:10.531Z,100018.00
2022-09-28T23:17:39.369Z,100022.00
2022-09-28T23:20:09.068Z,100020.00
2022-09-28T23:22:38.081Z,100015.00
2022-09-28T23:25:08.162Z,100017.00
2022-09-28T23:27:36.941Z,100019.00
2022-09-28T23:30:06.509Z,100017.00
2022-09-28T23:32:37.001Z,100019.00
2022-09-28T23:35:07.020Z,100012.00
2022-09-28T23:37:58.219Z,100004.00
2022-09-28T23:40:33.062Z,100001.00
2022-09-28T23:43:01.866Z,100008.00
2022-09-28T23:45:30.574Z,100005.00
2022-09-28T23:48:00.769Z,99998.00
2022-09-28T23:50:29.475Z,100001.00
2022-09-28T23:52:58.224Z,99993.00
2022-09-28T23:55:26.843Z,100000.00
2022-09-28T23:57:56.813Z,99997.00
